createdAt,value
2023-05-14T00:00:07.114Z,990.21
2023-05-14T00:01:07.092Z,990.20
2023-05-14T00:02:07.121Z,990.19
2023-05-14T00:03:07.273Z,990.18
2023-05-14T00:04:07.118Z,990.18
2023-05-14T00:05:07.082Z,990.17
2023-05-14T00:06:07.071Z,990.16
2023-05-14T00:07:07.046Z,990.16
2023-05-14T00:08:07.019Z,990.16
2023-05-14T00:09:07.021Z,990.16
2023-05-14T00:10:07.070Z,990.18
2023-05-14T00:11:07.018Z,990.18
2023-05-14T00:12:07.019Z,990.19
2023-05-14T00:13:07.004Z,990.19
2023-05-14T00:14:06.963Z,990.18
2023-05-14T00:15:06.966Z,990.19
2023-05-14T00:16:06.962Z,990.17
2023-05-14T00:17:06.951Z,990.17
2023-05-14T00:18:07.032Z,990.17
2023-05-14T00:19:07.021Z,990.16
2023-05-14T00:20:06.939Z,990.16
2023-05-14T00:21:06.928Z,990.14
2023-05-14T00:22:06.907Z,990.14
2023-05-14T00:23:06.901Z,990.13
2023-05-14T00:24:06.920Z,990.13
2023-05-14T00:25:06.900Z,990.13
2023-05-14T00:26:06.867Z,990.14
2023-05-14T00:27:06.870Z,990.15
2023-05-14T00:28:06.854Z,990.15
2023-05-14T00:29:06.853Z,990.16
2023-05-14T00:30:06.894Z,990.15
2023-05-14T00:31:06.860Z,990.15
2023-05-14T00:32:06.830Z,990.14
2023-05-14T00:33:06.847Z,990.13
2023-05-14T00:34:06.802Z,990.11
2023-05-14T00:35:06.812Z,990.10
2023-05-14T00:36:06.814Z,990.09
2023-05-14T00:37:06.788Z,990.08
2023-05-14T00:38:06.762Z,990.07
2023-05-14T00:39:06.774Z,990.06
2023-05-14T00:40:06.841Z,990.04
2023-05-14T00:41:06.748Z,990.03
2023-05-14T00:42:06.779Z,990.02
2023-05-14T00:43:06.729Z,990.02
2023-05-14T00:44:06.708Z,990.02
2023-05-14T00:45:06.719Z,990.02
2023-05-14T00:46:06.711Z,990.02
2023-05-14T00:47:06.790Z,990.02
2023-05-14T00:48:06.755Z,990.02
2023-05-14T00:49:06.686Z,990.03
2023-05-14T00:50:06.679Z,990.02
2023-05-14T00:51:06.679Z,990.02
2023-05-14T00:52:06.648Z,990.02
2023-05-14T00:53:06.678Z,990.02
2023-05-14T00:54:06.657Z,990.02
2023-05-14T00:55:06.637Z,990.02
2023-05-14T00:56:06.625Z,990.03
2023-05-14T00:57:06.622Z,990.03
2023-05-14T00:58:06.595Z,990.04
2023-05-14T00:59:06.673Z,990.04
2023-05-14T01:00:06.622Z,990.04
2023-05-14T01:01:06.645Z,990.03
2023-05-14T01:02:06.561Z,990.02
2023-05-14T01:03:06.670Z,990.01
2023-05-14T01:04:06.644Z,990.01
2023-05-14T01:05:06.547Z,990.01
2023-05-14T01:06:06.612Z,990.00
2023-05-14T01:07:06.537Z,990.00
2023-05-14T01:08:06.525Z,989.99
2023-05-14T01:09:06.520Z,989.99
2023-05-14T01:10:06.499Z,989.99
2023-05-14T01:11:06.502Z,989.98
2023-05-14T01:12:06.541Z,989.97
2023-05-14T01:13:06.523Z,989.98
2023-05-14T01:14:06.494Z,989.97
2023-05-14T01:15:06.468Z,989.97
2023-05-14T01:16:06.462Z,989.98
2023-05-14T01:17:06.446Z,989.97
2023-05-14T01:18:06.500Z,989.96
2023-05-14T01:19:06.575Z,989.95
2023-05-14T01:20:06.435Z,989.94
2023-05-14T01:21:06.435Z,989.94
2023-05-14T01:22:06.396Z,989.93
2023-05-14T01:23:06.382Z,989.93
2023-05-14T01:24:06.408Z,989.92
2023-05-14T01:25:06.468Z,989.92
2023-05-14T01:26:06.376Z,989.92
2023-05-14T01:27:06.357Z,989.92
2023-05-14T01:28:06.354Z,989.92
2023-05-14T01:29:06.346Z,989.93
2023-05-14T01:30:06.356Z,989.92
2023-05-14T01:31:06.378Z,989.92
2023-05-14T01:32:06.478Z,989.92
2023-05-14T01:33:06.354Z,989.90
2023-05-14T01:34:06.326Z,989.89
2023-05-14T01:35:07.188Z,989.89
2023-05-14T01:36:06.274Z,989.88
2023-05-14T01:37:06.334Z,989.88
2023-05-14T01:38:06.282Z,989.88
2023-05-14T01:39:06.257Z,989.87
2023-05-14T01:40:06.259Z,989.86
2023-05-14T01:41:06.251Z,989.86
2023-05-14T01:42:06.218Z,989.86
2023-05-14T01:43:06.358Z,989.85
2023-05-14T01:44:06.204Z,989.84
2023-05-14T01:45:06.252Z,989.84
2023-05-14T01:46:06.245Z,989.83
2023-05-14T01:47:06.191Z,989.83
2023-05-14T01:48:06.166Z,989.83
2023-05-14T01:49:06.192Z,989.84
2023-05-14T01:50:06.172Z,989.84
2023-05-14T01:51:06.208Z,989.85
2023-05-14T01:52:06.139Z,989.86
2023-05-14T01:53:06.153Z,989.86
2023-05-14T01:54:06.135Z,989.85
2023-05-14T01:55:06.111Z,989.84
2023-05-14T01:56:06.099Z,989.83
2023-05-14T01:57:06.177Z,989.81
2023-05-14T01:58:06.079Z,989.79
2023-05-14T01:59:06.166Z,989.78
2023-05-14T02:00:06.077Z,989.77
2023-05-14T02:01:06.116Z,989.77
2023-05-14T02:02:06.040Z,989.77
2023-05-14T02:03:06.161Z,989.77
2023-05-14T02:04:06.050Z,989.78
2023-05-14T02:05:07.027Z,989.78
2023-05-14T02:06:06.128Z,989.78
2023-05-14T02:07:06.016Z,989.78
2023-05-14T02:08:05.996Z,989.78
2023-05-14T02:09:06.050Z,989.78
2023-05-14T02:10:05.985Z,989.78
2023-05-14T02:11:06.002Z,989.79
2023-05-14T02:12:05.992Z,989.80
2023-05-14T02:13:05.957Z,989.79
2023-05-14T02:14:05.959Z,989.79
2023-05-14T02:15:05.963Z,989.77
2023-05-14T02:16:05.961Z,989.76
2023-05-14T02:17:05.928Z,989.75
2023-05-14T02:18:05.982Z,989.73
2023-05-14T02:19:05.963Z,989.72
2023-05-14T02:20:05.904Z,989.69
2023-05-14T02:21:05.952Z,989.68
2023-05-14T02:22:05.933Z,989.66
2023-05-14T02:23:05.893Z,989.63
2023-05-14T02:24:05.866Z,989.62
2023-05-14T02:25:05.915Z,989.61
2023-05-14T02:26:05.865Z,989.61
2023-05-14T02:27:05.882Z,989.61
2023-05-14T02:28:05.824Z,989.62
2023-05-14T02:29:05.863Z,989.61
2023-05-14T02:30:05.817Z,989.60
2023-05-14T02:31:05.917Z,989.59
2023-05-14T02:32:05.859Z,989.58
2023-05-14T02:33:05.869Z,989.57
2023-05-14T02:34:05.798Z,989.55
2023-05-14T02:35:05.797Z,989.54
2023-05-14T02:36:05.772Z,989.51
2023-05-14T02:37:05.866Z,989.51
2023-05-14T02:38:05.767Z,989.50
2023-05-14T02:39:05.747Z,989.50
2023-05-14T02:40:05.744Z,989.49
2023-05-14T02:41:05.730Z,989.48
2023-05-14T02:42:05.714Z,989.48
2023-05-14T02:43:05.781Z,989.48
2023-05-14T02:44:05.722Z,989.47
2023-05-14T02:45:05.729Z,989.46
2023-05-14T02:46:05.701Z,989.45
2023-05-14T02:47:05.799Z,989.44
2023-05-14T02:48:05.766Z,989.45
2023-05-14T02:49:05.702Z,989.46
2023-05-14T02:50:05.647Z,989.48
2023-05-14T02:51:05.655Z,989.51
2023-05-14T02:52:05.653Z,989.53
2023-05-14T02:53:05.668Z,989.53
2023-05-14T02:54:05.609Z,989.54
2023-05-14T02:55:05.671Z,989.54
2023-05-14T02:56:05.614Z,989.54
2023-05-14T02:57:05.612Z,989.54
2023-05-14T02:58:05.593Z,989.53
2023-05-14T02:59:05.586Z,989.52
2023-05-14T03:00:05.593Z,989.51
2023-05-14T03:01:05.614Z,989.51
2023-05-14T03:02:05.575Z,989.51
2023-05-14T03:03:05.568Z,989.51
2023-05-14T03:04:05.541Z,989.52
2023-05-14T03:05:05.536Z,989.52
2023-05-14T03:06:05.526Z,989.52
2023-05-14T03:07:05.549Z,989.51
2023-05-14T03:08:05.500Z,989.50
2023-05-14T03:09:05.508Z,989.50
2023-05-14T03:10:05.478Z,989.50
2023-05-14T03:11:05.489Z,989.50
2023-05-14T03:12:05.469Z,989.51
2023-05-14T03:13:05.526Z,989.53
2023-05-14T03:14:05.447Z,989.53
2023-05-14T03:15:05.514Z,989.53
2023-05-14T03:16:06.195Z,989.53
2023-05-14T03:17:05.497Z,989.52
2023-05-14T03:18:05.478Z,989.51
2023-05-14T03:19:05.494Z,989.50
2023-05-14T03:20:05.396Z,989.50
2023-05-14T03:21:05.419Z,989.49
2023-05-14T03:22:05.394Z,989.49
2023-05-14T03:23:05.390Z,989.48
2023-05-14T03:24:05.425Z,989.47
2023-05-14T03:25:05.370Z,989.46
2023-05-14T03:26:05.366Z,989.45
2023-05-14T03:27:05.394Z,989.45
2023-05-14T03:28:05.356Z,989.44
2023-05-14T03:29:05.317Z,989.44
2023-05-14T03:30:05.356Z,989.43
2023-05-14T03:31:05.402Z,989.43
2023-05-14T03:32:05.320Z,989.42
2023-05-14T03:33:05.317Z,989.41
2023-05-14T03:34:05.296Z,989.40
2023-05-14T03:35:05.323Z,989.38
2023-05-14T03:36:05.316Z,989.37
2023-05-14T03:37:05.277Z,989.36
2023-05-14T03:38:05.258Z,989.37
2023-05-14T03:39:05.244Z,989.37
2023-05-14T03:40:05.249Z,989.38
2023-05-14T03:41:05.292Z,989.38
2023-05-14T03:42:05.298Z,989.39
2023-05-14T03:43:05.213Z,989.41
2023-05-14T03:44:05.208Z,989.43
2023-05-14T03:45:05.263Z,989.45
2023-05-14T03:46:05.194Z,989.46
2023-05-14T03:47:05.186Z,989.46
2023-05-14T03:48:05.281Z,989.46
2023-05-14T03:49:05.267Z,989.46
2023-05-14T03:50:05.152Z,989.46
2023-05-14T03:51:05.135Z,989.47
2023-05-14T03:52:05.144Z,989.48
2023-05-14T03:53:05.133Z,989.50
2023-05-14T03:54:05.175Z,989.51
2023-05-14T03:55:05.120Z,989.52
2023-05-14T03:56:05.137Z,989.53
2023-05-14T03:57:05.101Z,989.54
2023-05-14T03:58:05.103Z,989.52
2023-05-14T03:59:05.078Z,989.52
2023-05-14T04:00:05.146Z,989.51
2023-05-14T04:01:05.057Z,989.51
2023-05-14T04:02:05.055Z,989.52
2023-05-14T04:03:05.121Z,989.52
2023-05-14T04:04:05.183Z,989.53
2023-05-14T04:05:05.078Z,989.55
2023-05-14T04:06:05.047Z,989.56
2023-05-14T04:07:04.998Z,989.56
2023-05-14T04:08:05.005Z,989.56
2023-05-14T04:09:04.993Z,989.56
2023-05-14T04:10:05.014Z,989.56
2023-05-14T04:11:04.978Z,989.56
2023-05-14T04:12:05.018Z,989.56
2023-05-14T04:13:04.964Z,989.56
2023-05-14T04:14:05.006Z,989.57
2023-05-14T04:15:04.943Z,989.56
2023-05-14T04:16:04.980Z,989.56
2023-05-14T04:17:04.965Z,989.56
2023-05-14T04:18:05.026Z,989.57
2023-05-14T04:19:04.978Z,989.57
2023-05-14T04:20:04.897Z,989.58
2023-05-14T04:21:04.882Z,989.57
2023-05-14T04:22:04.883Z,989.57
2023-05-14T04:23:04.881Z,989.57
2023-05-14T04:24:04.940Z,989.56
2023-05-14T04:25:04.873Z,989.56
2023-05-14T04:26:04.909Z,989.55
2023-05-14T04:27:04.841Z,989.55
2023-05-14T04:28:04.837Z,989.54
2023-05-14T04:29:04.827Z,989.53
2023-05-14T04:30:04.868Z,989.53
2023-05-14T04:31:04.801Z,989.52
2023-05-14T04:32:04.889Z,989.53
2023-05-14T04:33:04.841Z,989.53
2023-05-14T04:34:04.789Z,989.52
2023-05-14T04:35:04.817Z,989.51
2023-05-14T04:36:04.795Z,989.51
2023-05-14T04:37:04.772Z,989.51
2023-05-14T04:38:04.765Z,989.51
2023-05-14T04:39:04.745Z,989.50
2023-05-14T04:40:04.743Z,989.50
2023-05-14T04:41:04.825Z,989.49
2023-05-14T04:42:04.762Z,989.49
2023-05-14T04:43:04.703Z,989.48
2023-05-14T04:44:04.700Z,989.47
2023-05-14T04:45:04.741Z,989.47
2023-05-14T04:46:04.742Z,989.48
2023-05-14T04:47:04.663Z,989.48
2023-05-14T04:48:04.776Z,989.50
2023-05-14T04:49:04.672Z,989.51
2023-05-14T04:50:04.656Z,989.52
2023-05-14T04:51:06.952Z,989.54
2023-05-14T04:52:04.635Z,989.55
2023-05-14T04:53:04.666Z,989.56
2023-05-14T04:54:04.650Z,989.57
2023-05-14T04:55:04.634Z,989.59
2023-05-14T04:56:04.605Z,989.61
2023-05-14T04:57:04.589Z,989.62
2023-05-14T04:58:04.592Z,989.62
2023-05-14T04:59:04.594Z,989.62
2023-05-14T05:00:04.569Z,989.63
2023-05-14T05:01:04.594Z,989.63
2023-05-14T05:02:04.559Z,989.63
2023-05-14T05:03:04.709Z,989.63
2023-05-14T05:04:04.665Z,989.63
2023-05-14T05:05:04.544Z,989.63
2023-05-14T05:06:04.534Z,989.64
2023-05-14T05:07:04.509Z,989.64
2023-05-14T05:08:04.536Z,989.63
2023-05-14T05:09:04.530Z,989.64
2023-05-14T05:10:04.534Z,989.63
2023-05-14T05:11:04.526Z,989.62
2023-05-14T05:12:04.528Z,989.62
2023-05-14T05:13:04.458Z,989.63
2023-05-14T05:14:04.475Z,989.62
2023-05-14T05:15:04.443Z,989.62
2023-05-14T05:16:04.641Z,989.62
2023-05-14T05:17:04.451Z,989.61
2023-05-14T05:18:04.470Z,989.60
2023-05-14T05:19:04.544Z,989.59
2023-05-14T05:20:04.553Z,989.59
2023-05-14T05:21:04.398Z,989.58
2023-05-14T05:22:04.396Z,989.59
2023-05-14T05:23:04.428Z,989.59
2023-05-14T05:24:04.391Z,989.60
2023-05-14T05:25:04.369Z,989.61
2023-05-14T05:26:04.364Z,989.60
2023-05-14T05:27:04.346Z,989.59
2023-05-14T05:28:04.364Z,989.58
2023-05-14T05:29:04.392Z,989.57
2023-05-14T05:30:04.605Z,989.56
2023-05-14T05:31:04.349Z,989.54
2023-05-14T05:32:04.330Z,989.52
2023-05-14T05:33:04.398Z,989.51
2023-05-14T05:34:04.304Z,989.51
2023-05-14T05:35:04.350Z,989.50
2023-05-14T05:36:04.292Z,989.49
2023-05-14T05:37:04.279Z,989.49
2023-05-14T05:38:04.419Z,989.49
2023-05-14T05:39:04.237Z,989.49
2023-05-14T05:40:04.276Z,989.48
2023-05-14T05:41:04.279Z,989.49
2023-05-14T05:42:04.240Z,989.49
2023-05-14T05:43:04.225Z,989.50
2023-05-14T05:44:04.217Z,989.50
2023-05-14T05:45:04.234Z,989.50
2023-05-14T05:46:04.232Z,989.50
2023-05-14T05:47:04.585Z,989.50
2023-05-14T05:48:04.789Z,989.50
2023-05-14T05:49:04.205Z,989.49
2023-05-14T05:50:04.304Z,989.49
2023-05-14T05:51:04.151Z,989.48
2023-05-14T05:52:04.180Z,989.46
2023-05-14T05:53:04.740Z,989.45
2023-05-14T05:54:04.387Z,989.44
2023-05-14T05:55:04.114Z,989.42
2023-05-14T05:56:04.145Z,989.41
2023-05-14T05:57:04.133Z,989.39
2023-05-14T05:58:04.097Z,989.38
2023-05-14T05:59:04.072Z,989.36
2023-05-14T06:00:04.107Z,989.34
2023-05-14T06:01:04.072Z,989.33
2023-05-14T06:02:04.120Z,989.31
2023-05-14T06:03:04.114Z,989.31
2023-05-14T06:04:04.067Z,989.31
2023-05-14T06:05:04.040Z,989.32
2023-05-14T06:06:04.026Z,989.32
2023-05-14T06:07:04.160Z,989.32
2023-05-14T06:08:04.020Z,989.33
2023-05-14T06:09:04.030Z,989.34
2023-05-14T06:10:04.000Z,989.34
2023-05-14T06:11:03.970Z,989.34
2023-05-14T06:12:04.001Z,989.34
2023-05-14T06:13:03.955Z,989.34
2023-05-14T06:14:04.712Z,989.34
2023-05-14T06:15:03.969Z,989.35
2023-05-14T06:16:03.962Z,989.36
2023-05-14T06:17:03.953Z,989.36
2023-05-14T06:18:03.953Z,989.35
2023-05-14T06:19:03.989Z,989.36
2023-05-14T06:20:04.005Z,989.37
2023-05-14T06:21:03.916Z,989.38
2023-05-14T06:22:03.898Z,989.40
2023-05-14T06:23:03.883Z,989.41
2023-05-14T06:24:03.918Z,989.41
2023-05-14T06:25:03.868Z,989.42
2023-05-14T06:26:03.936Z,989.42
2023-05-14T06:27:03.849Z,989.42
2023-05-14T06:28:03.847Z,989.41
2023-05-14T06:29:03.834Z,989.40
2023-05-14T06:30:03.884Z,989.39
2023-05-14T06:31:03.826Z,989.37
2023-05-14T06:32:03.918Z,989.37
2023-05-14T06:33:04.128Z,989.35
2023-05-14T06:34:03.824Z,989.33
2023-05-14T06:35:03.776Z,989.31
2023-05-14T06:36:03.869Z,989.29
2023-05-14T06:37:03.751Z,989.28
2023-05-14T06:38:03.772Z,989.27
2023-05-14T06:39:03.799Z,989.25
2023-05-14T06:40:03.777Z,989.24
2023-05-14T06:41:03.742Z,989.22
2023-05-14T06:42:03.762Z,989.21
2023-05-14T06:43:03.725Z,989.20
2023-05-14T06:44:03.710Z,989.18
2023-05-14T06:45:03.748Z,989.16
2023-05-14T06:46:03.954Z,989.14
2023-05-14T06:47:03.738Z,989.12
2023-05-14T06:48:03.791Z,989.11
2023-05-14T06:49:03.755Z,989.08
2023-05-14T06:50:03.656Z,989.07
2023-05-14T06:51:03.632Z,989.06
2023-05-14T06:52:03.665Z,989.05
2023-05-14T06:53:03.625Z,989.05
2023-05-14T06:54:03.627Z,989.05
2023-05-14T06:55:03.633Z,989.06
2023-05-14T06:56:03.655Z,989.06
2023-05-14T06:57:03.819Z,989.08
2023-05-14T06:58:03.610Z,989.06
2023-05-14T06:59:03.597Z,989.05
2023-05-14T07:00:03.926Z,989.02
2023-05-14T07:01:03.574Z,989.02
2023-05-14T07:02:03.597Z,989.02
2023-05-14T07:03:03.591Z,989.01
2023-05-14T07:04:03.585Z,989.01
2023-05-14T07:05:03.533Z,989.01
2023-05-14T07:06:03.525Z,989.00
2023-05-14T07:07:03.497Z,988.99
2023-05-14T07:08:03.533Z,988.98
2023-05-14T07:09:03.509Z,988.97
2023-05-14T07:10:03.488Z,988.95
2023-05-14T07:11:03.470Z,988.94
2023-05-14T07:12:03.482Z,988.93
2023-05-14T07:13:03.466Z,988.90
2023-05-14T07:14:03.476Z,988.89
2023-05-14T07:15:03.448Z,988.89
2023-05-14T07:16:03.451Z,988.89
2023-05-14T07:17:03.444Z,988.86
2023-05-14T07:18:03.441Z,988.85
2023-05-14T07:19:03.548Z,988.84
2023-05-14T07:20:03.405Z,988.83
2023-05-14T07:21:03.406Z,988.80
2023-05-14T07:22:03.381Z,988.80
2023-05-14T07:23:03.369Z,988.78
2023-05-14T07:24:03.384Z,988.77
2023-05-14T07:25:03.421Z,988.74
2023-05-14T07:26:03.349Z,988.74
2023-05-14T07:27:03.344Z,988.73
2023-05-14T07:28:03.338Z,988.74
2023-05-14T07:29:03.380Z,988.73
2023-05-14T07:30:03.319Z,988.73
2023-05-14T07:31:03.420Z,988.71
2023-05-14T07:32:03.296Z,988.68
2023-05-14T07:33:03.305Z,988.71
2023-05-14T07:34:03.402Z,988.69
2023-05-14T07:35:03.259Z,988.69
2023-05-14T07:36:03.534Z,988.68
2023-05-14T07:37:03.272Z,988.67
2023-05-14T07:38:03.241Z,988.68
2023-05-14T07:39:03.238Z,988.67
2023-05-14T07:40:03.221Z,988.66
2023-05-14T07:41:03.330Z,988.65
2023-05-14T07:42:03.295Z,988.66
2023-05-14T07:43:03.193Z,988.65
2023-05-14T07:44:03.323Z,988.65
2023-05-14T07:45:07.629Z,988.64
2023-05-14T07:46:03.179Z,988.62
2023-05-14T07:47:03.244Z,988.60
2023-05-14T07:48:03.217Z,988.58
2023-05-14T07:49:03.159Z,988.58
2023-05-14T07:50:03.149Z,988.56
2023-05-14T07:51:03.142Z,988.57
2023-05-14T07:52:03.132Z,988.57
2023-05-14T07:53:03.180Z,988.56
2023-05-14T07:54:03.107Z,988.54
2023-05-14T07:55:03.099Z,988.52
2023-05-14T07:56:03.091Z,988.54
2023-05-14T07:57:03.099Z,988.54
2023-05-14T07:58:03.110Z,988.52
2023-05-14T07:59:03.110Z,988.51
2023-05-14T08:00:03.073Z,988.50
2023-05-14T08:01:03.065Z,988.49
2023-05-14T08:02:03.055Z,988.48
2023-05-14T08:03:03.400Z,988.46
2023-05-14T08:04:03.085Z,988.49
2023-05-14T08:05:03.064Z,988.45
2023-05-14T08:06:03.054Z,988.46
2023-05-14T08:07:03.009Z,988.45
2023-05-14T08:08:02.994Z,988.45
2023-05-14T08:09:02.990Z,988.39
2023-05-14T08:10:02.968Z,988.46
2023-05-14T08:11:03.064Z,988.47
2023-05-14T08:12:03.033Z,988.45
2023-05-14T08:13:03.022Z,988.44
2023-05-14T08:14:02.947Z,988.43
2023-05-14T08:15:03.035Z,988.42
2023-05-14T08:16:02.983Z,988.47
2023-05-14T08:17:03.880Z,988.43
2023-05-14T08:18:02.954Z,988.43
2023-05-14T08:19:02.963Z,988.42
2023-05-14T08:20:02.904Z,988.40
2023-05-14T08:21:03.806Z,988.43
2023-05-14T08:22:02.873Z,988.42
2023-05-14T08:23:02.885Z,988.34
2023-05-14T08:24:03.798Z,988.38
2023-05-14T08:25:02.856Z,988.39
2023-05-14T08:26:02.850Z,988.35
2023-05-14T08:27:02.901Z,988.33
2023-05-14T08:28:02.852Z,988.34
2023-05-14T08:29:02.838Z,988.32
2023-05-14T08:30:02.913Z,988.37
2023-05-14T08:31:02.856Z,988.29
2023-05-14T08:32:11.654Z,988.31
2023-05-14T08:33:03.872Z,988.33
2023-05-14T08:34:02.788Z,988.32
2023-05-14T08:35:02.805Z,988.30
2023-05-14T08:36:02.764Z,988.31
2023-05-14T08:37:02.764Z,988.29
2023-05-14T08:38:02.747Z,988.27
2023-05-14T08:39:02.814Z,988.22
2023-05-14T08:40:02.750Z,988.24
2023-05-14T08:41:02.735Z,988.23
2023-05-14T08:42:02.773Z,988.24
2023-05-14T08:43:02.808Z,988.20
2023-05-14T08:44:02.731Z,988.17
2023-05-14T08:45:02.775Z,988.18
2023-05-14T08:46:02.682Z,988.20
2023-05-14T08:47:02.704Z,988.16
2023-05-14T08:48:02.830Z,988.13
2023-05-14T08:49:02.723Z,988.10
2023-05-14T08:50:02.691Z,988.12
2023-05-14T08:51:02.649Z,988.14
2023-05-14T08:52:02.645Z,988.09
2023-05-14T08:53:02.637Z,988.10
2023-05-14T08:54:02.715Z,988.08
2023-05-14T08:55:02.613Z,988.10
2023-05-14T08:56:02.604Z,988.11
2023-05-14T08:57:02.631Z,988.07
2023-05-14T08:58:02.577Z,988.08
2023-05-14T08:59:02.587Z,988.08
2023-05-14T09:00:02.579Z,988.05
2023-05-14T09:01:02.561Z,988.03
2023-05-14T09:02:02.676Z,988.03
2023-05-14T09:03:02.580Z,988.02
2023-05-14T09:04:02.702Z,988.02
2023-05-14T09:05:02.557Z,987.99
2023-05-14T09:06:02.552Z,987.96
2023-05-14T09:07:02.586Z,987.94
2023-05-14T09:08:02.596Z,987.94
2023-05-14T09:09:02.552Z,987.95
2023-05-14T09:10:02.504Z,987.97
2023-05-14T09:11:02.581Z,987.93
2023-05-14T09:12:02.482Z,987.95
2023-05-14T09:13:02.482Z,987.95
2023-05-14T09:14:02.442Z,987.94
2023-05-14T09:15:02.460Z,987.94
2023-05-14T09:16:02.480Z,987.90
2023-05-14T09:17:02.435Z,987.93
2023-05-14T09:18:02.467Z,988.01
2023-05-14T09:19:02.432Z,987.97
2023-05-14T09:20:02.463Z,987.95
2023-05-14T09:21:02.385Z,987.97
2023-05-14T09:22:02.402Z,987.93
2023-05-14T09:23:02.381Z,987.93
2023-05-14T09:24:02.385Z,987.91
2023-05-14T09:25:02.421Z,987.91
2023-05-14T09:26:02.343Z,987.86
2023-05-14T09:27:02.389Z,987.89
2023-05-14T09:28:02.333Z,987.93
2023-05-14T09:29:02.383Z,987.93
2023-05-14T09:30:03.320Z,987.93
2023-05-14T09:31:02.344Z,987.91
2023-05-14T09:32:02.355Z,987.87
2023-05-14T09:33:02.336Z,987.87
2023-05-14T09:34:02.271Z,987.86
2023-05-14T09:35:02.311Z,987.89
2023-05-14T09:36:02.258Z,987.82
2023-05-14T09:37:02.290Z,987.87
2023-05-14T09:38:02.238Z,987.83
2023-05-14T09:39:02.238Z,987.82
2023-05-14T09:40:02.258Z,987.83
2023-05-14T09:41:02.240Z,987.82
2023-05-14T09:42:02.243Z,987.81
2023-05-14T09:43:02.249Z,987.79
2023-05-14T09:44:03.043Z,987.77
2023-05-14T09:45:02.215Z,987.77
2023-05-14T09:46:02.265Z,987.76
2023-05-14T09:47:02.212Z,987.73
2023-05-14T09:48:02.308Z,987.73
2023-05-14T09:49:02.304Z,987.73
2023-05-14T09:50:02.216Z,987.68
2023-05-14T09:51:04.012Z,987.71
2023-05-14T09:52:02.163Z,987.70
2023-05-14T09:53:02.214Z,987.72
2023-05-14T09:54:02.125Z,987.71
2023-05-14T09:55:02.121Z,987.69
2023-05-14T09:56:02.096Z,987.69
2023-05-14T09:57:02.105Z,987.68
2023-05-14T09:58:02.155Z,987.65
2023-05-14T09:59:02.076Z,987.64
2023-05-14T10:00:02.131Z,987.64
2023-05-14T10:01:02.167Z,987.61
2023-05-14T10:02:02.070Z,987.62
2023-05-14T10:03:02.224Z,987.60
2023-05-14T10:04:02.129Z,987.59
2023-05-14T10:05:02.050Z,987.54
2023-05-14T10:06:02.033Z,987.59
2023-05-14T10:07:02.749Z,987.59
2023-05-14T10:08:02.039Z,987.59
2023-05-14T10:09:02.065Z,987.58
2023-05-14T10:10:02.005Z,987.58
2023-05-14T10:11:02.044Z,987.58
2023-05-14T10:12:01.967Z,987.57
2023-05-14T10:13:01.968Z,987.54
2023-05-14T10:14:01.955Z,987.53
2023-05-14T10:15:01.992Z,987.55
2023-05-14T10:16:01.964Z,987.53
2023-05-14T10:17:02.096Z,987.53
2023-05-14T10:18:01.960Z,987.54
2023-05-14T10:19:01.971Z,987.54
2023-05-14T10:20:01.901Z,987.51
2023-05-14T10:21:01.960Z,987.53
2023-05-14T10:22:01.911Z,987.54
2023-05-14T10:23:01.943Z,987.52
2023-05-14T10:24:01.898Z,987.52
2023-05-14T10:25:01.923Z,987.50
2023-05-14T10:26:01.891Z,987.47
2023-05-14T10:27:01.952Z,987.47
2023-05-14T10:28:01.916Z,987.43
2023-05-14T10:29:01.851Z,987.42
2023-05-14T10:30:01.828Z,987.46
2023-05-14T10:31:01.931Z,987.45
2023-05-14T10:32:01.819Z,987.45
2023-05-14T10:33:01.852Z,987.47
2023-05-14T10:34:01.790Z,987.48
2023-05-14T10:35:01.790Z,987.49
2023-05-14T10:36:01.797Z,987.49
2023-05-14T10:37:01.831Z,987.46
2023-05-14T10:38:01.761Z,987.46
2023-05-14T10:39:01.750Z,987.45
2023-05-14T10:40:01.755Z,987.42
2023-05-14T10:41:01.763Z,987.39
2023-05-14T10:42:01.723Z,987.35
2023-05-14T10:43:01.762Z,987.35
2023-05-14T10:44:01.696Z,987.35
2023-05-14T10:45:01.725Z,987.37
2023-05-14T10:46:01.689Z,987.33
2023-05-14T10:47:01.759Z,987.34
2023-05-14T10:48:01.678Z,987.35
2023-05-14T10:49:01.712Z,987.34
2023-05-14T10:50:01.663Z,987.35
2023-05-14T10:51:01.680Z,987.33
2023-05-14T10:52:01.649Z,987.31
2023-05-14T10:53:01.664Z,987.29
2023-05-14T10:54:01.743Z,987.33
2023-05-14T10:55:03.392Z,987.36
2023-05-14T10:56:01.622Z,987.33
2023-05-14T10:57:01.651Z,987.32
2023-05-14T10:58:01.592Z,987.33
2023-05-14T10:59:01.664Z,987.35
2023-05-14T11:00:01.689Z,987.34
2023-05-14T11:01:01.588Z,987.33
2023-05-14T11:02:01.611Z,987.31
2023-05-14T11:03:01.604Z,987.31
2023-05-14T11:04:01.621Z,987.30
2023-05-14T11:05:01.566Z,987.29
2023-05-14T11:06:01.542Z,987.28
2023-05-14T11:07:01.550Z,987.26
2023-05-14T11:08:01.503Z,987.22
2023-05-14T11:09:01.522Z,987.17
2023-05-14T11:10:01.503Z,987.14
2023-05-14T11:11:01.510Z,987.11
2023-05-14T11:12:01.471Z,987.10
2023-05-14T11:13:01.482Z,987.09
2023-05-14T11:14:01.478Z,987.06
2023-05-14T11:15:01.465Z,987.04
2023-05-14T11:16:08.718Z,987.03
2023-05-14T11:17:02.464Z,987.02
2023-05-14T11:18:01.458Z,987.01
2023-05-14T11:19:01.480Z,987.00
2023-05-14T11:20:01.430Z,987.02
2023-05-14T11:21:01.440Z,986.98
2023-05-14T11:22:01.419Z,986.97
2023-05-14T11:23:01.398Z,986.97
2023-05-14T11:24:01.387Z,986.93
2023-05-14T11:25:01.520Z,986.92
2023-05-14T11:26:01.405Z,986.89
2023-05-14T11:27:01.354Z,986.90
2023-05-14T11:28:01.421Z,986.85
2023-05-14T11:29:01.357Z,986.87
2023-05-14T11:30:01.528Z,986.88
2023-05-14T11:31:01.386Z,986.86
2023-05-14T11:32:01.470Z,986.89
2023-05-14T11:33:02.195Z,986.83
2023-05-14T11:34:01.310Z,986.86
2023-05-14T11:35:01.313Z,986.79
2023-05-14T11:36:01.282Z,986.78
2023-05-14T11:37:01.295Z,986.75
2023-05-14T11:38:01.290Z,986.74
2023-05-14T11:39:01.283Z,986.76
2023-05-14T11:40:01.307Z,986.76
2023-05-14T11:41:01.253Z,986.74
2023-05-14T11:42:01.243Z,986.73
2023-05-14T11:43:01.429Z,986.78
2023-05-14T11:44:01.212Z,986.73
2023-05-14T11:45:01.250Z,986.74
2023-05-14T11:46:01.240Z,986.73
2023-05-14T11:47:01.228Z,986.75
2023-05-14T11:48:01.276Z,986.71
2023-05-14T11:49:01.285Z,986.73
2023-05-14T11:50:01.198Z,986.70
2023-05-14T11:51:01.197Z,986.70
2023-05-14T11:52:01.177Z,986.69
2023-05-14T11:53:01.144Z,986.71
2023-05-14T11:54:01.154Z,986.69
2023-05-14T11:55:01.175Z,986.70
2023-05-14T11:56:01.168Z,986.69
2023-05-14T11:57:01.119Z,986.69
2023-05-14T11:58:01.159Z,986.69
2023-05-14T11:59:01.090Z,986.67
2023-05-14T12:00:01.110Z,986.68
2023-05-14T12:01:01.098Z,986.68
2023-05-14T12:02:01.065Z,986.66
2023-05-14T12:03:01.209Z,986.65
2023-05-14T12:04:01.125Z,986.65
2023-05-14T12:05:01.094Z,986.64
2023-05-14T12:06:01.105Z,986.66
2023-05-14T12:07:01.029Z,986.64
2023-05-14T12:08:01.064Z,986.65
2023-05-14T12:09:00.996Z,986.64
2023-05-14T12:10:01.000Z,986.61
2023-05-14T12:11:01.005Z,986.59
2023-05-14T12:12:01.017Z,986.59
2023-05-14T12:13:00.996Z,986.58
2023-05-14T12:14:00.998Z,986.58
2023-05-14T12:15:00.956Z,986.58
2023-05-14T12:16:01.075Z,986.56
2023-05-14T12:17:00.952Z,986.54
2023-05-14T12:18:02.274Z,986.53
2023-05-14T12:19:00.992Z,986.51
2023-05-14T12:20:00.956Z,986.48
2023-05-14T12:21:00.907Z,986.49
2023-05-14T12:22:00.921Z,986.48
2023-05-14T12:23:00.904Z,986.47
2023-05-14T12:24:00.916Z,986.51
2023-05-14T12:25:00.924Z,986.48
2023-05-14T12:26:00.918Z,986.46
2023-05-14T12:27:00.870Z,986.46
2023-05-14T12:28:00.891Z,986.47